createdAt,value
2017-12-05T00:00:53.008Z,34.17
2017-12-05T00:03:21.082Z,25.80
2017-12-05T00:05:47.388Z,27.27
2017-12-05T00:08:14.404Z,24.73
2017-12-05T00:10:40.675Z,30.13
2017-12-05T00:13:07.687Z,28.60
2017-12-05T00:15:34.065Z,33.50
2017-12-05T00:18:01.049Z,31.27
2017-12-05T00:20:27.354Z,36.23
2017-12-05T00:22:53.666Z,33.97
2017-12-05T00:25:20.711Z,34.60
2017-12-05T00:27:47.692Z,28.70
2017-12-05T00:30:14.049Z,33.33
2017-12-05T00:32:40.305Z,31.10
2017-12-05T00:35:07.255Z,30.43
2017-12-05T00:37:34.274Z,27.93
2017-12-05T00:40:00.645Z,44.80
2017-12-05T00:42:27.657Z,32.37
2017-12-05T00:44:53.929Z,33.97
2017-12-05T00:47:20.229Z,38.53
2017-12-05T00:49:47.265Z,34.40
2017-12-05T00:52:13.575Z,29.80
2017-12-05T00:54:39.798Z,27.03
2017-12-05T00:57:06.030Z,27.33
2017-12-05T00:59:32.314Z,34.10
2017-12-05T01:01:59.363Z,26.20
2017-12-05T01:04:26.335Z,35.07
2017-12-05T01:06:52.638Z,28.10
2017-12-05T01:09:19.635Z,36.63
2017-12-05T01:11:45.906Z,31.27
2017-12-05T01:14:12.897Z,33.93
2017-12-05T01:16:39.123Z,30.03
2017-12-05T01:19:05.430Z,34.13
2017-12-05T01:21:31.733Z,30.43
2017-12-05T01:23:58.733Z,30.73
2017-12-05T01:26:24.966Z,27.33
2017-12-05T01:28:51.211Z,31.03
2017-12-05T01:31:17.483Z,29.60
2017-12-05T01:33:44.470Z,32.23
2017-12-05T01:36:10.740Z,32.27
2017-12-05T01:38:37.716Z,35.00
2017-12-05T01:41:04.013Z,38.87
2017-12-05T01:43:30.374Z,29.43
2017-12-05T01:45:56.657Z,32.63
2017-12-05T01:48:22.978Z,35.93
2017-12-05T01:50:49.254Z,32.03
2017-12-05T01:53:16.328Z,34.00
2017-12-05T01:55:42.641Z,37.50
2017-12-05T01:58:08.916Z,31.80
2017-12-05T02:00:41.282Z,33.37
2017-12-05T02:03:07.611Z,30.80
2017-12-05T02:05:33.892Z,35.00
2017-12-05T02:08:00.928Z,34.30
2017-12-05T02:10:27.247Z,33.40
2017-12-05T02:12:53.550Z,37.33
2017-12-05T02:15:19.837Z,31.83
2017-12-05T02:17:46.169Z,31.07
2017-12-05T02:20:12.494Z,36.13
2017-12-05T02:22:39.524Z,43.93
2017-12-05T02:25:06.553Z,28.53
2017-12-05T02:27:32.789Z,32.40
2017-12-05T02:29:59.066Z,34.33
2017-12-05T02:32:25.347Z,35.27
2017-12-05T02:34:52.358Z,32.87
2017-12-05T02:37:18.606Z,25.47
2017-12-05T02:39:44.917Z,34.33
2017-12-05T02:42:11.209Z,34.60
2017-12-05T02:44:38.239Z,33.20
2017-12-05T02:47:05.285Z,35.47
2017-12-05T02:49:32.317Z,36.53
2017-12-05T02:51:58.611Z,31.20
2017-12-05T02:54:24.910Z,33.60
2017-12-05T02:56:51.929Z,37.80
2017-12-05T02:59:19.045Z,30.40
2017-12-05T03:01:45.339Z,37.50
2017-12-05T03:04:12.462Z,33.73
2017-12-05T03:06:38.707Z,31.80
2017-12-05T03:09:05.704Z,33.70
2017-12-05T03:11:31.985Z,32.63
2017-12-05T03:13:59.053Z,38.37
2017-12-05T03:16:25.382Z,31.77
2017-12-05T03:18:51.694Z,39.13
2017-12-05T03:21:18.764Z,32.00
2017-12-05T03:23:44.992Z,36.90
2017-12-05T03:26:11.321Z,32.70
2017-12-05T03:28:37.572Z,38.80
2017-12-05T03:31:03.827Z,36.43
2017-12-05T03:33:30.078Z,34.77
2017-12-05T03:35:57.050Z,33.57
2017-12-05T03:38:23.357Z,33.70
2017-12-05T03:40:50.457Z,38.83
2017-12-05T03:43:16.711Z,43.47
2017-12-05T03:45:42.950Z,37.67
2017-12-05T03:48:09.241Z,38.43
2017-12-05T03:50:35.605Z,37.30
2017-12-05T03:53:01.915Z,37.33
2017-12-05T03:55:28.201Z,33.27
2017-12-05T03:57:54.412Z,38.27
2017-12-05T04:00:21.422Z,37.70
2017-12-05T04:02:47.709Z,41.77
2017-12-05T04:05:13.964Z,36.90
2017-12-05T04:07:40.204Z,36.10
2017-12-05T04:10:06.481Z,38.00
2017-12-05T04:12:33.485Z,36.23
2017-12-05T04:14:59.752Z,37.40
2017-12-05T04:17:26.795Z,31.10
2017-12-05T04:19:53.767Z,40.97
2017-12-05T04:22:20.041Z,38.70
2017-12-05T04:24:46.309Z,45.63
2017-12-05T04:27:13.328Z,35.80
2017-12-05T04:29:47.801Z,46.40
2017-12-05T04:32:14.067Z,39.63
2017-12-05T04:34:40.299Z,38.17
2017-12-05T04:37:07.513Z,32.80
2017-12-05T04:39:33.877Z,33.93
2017-12-05T04:42:00.798Z,42.20
2017-12-05T04:44:27.117Z,36.73
2017-12-05T04:46:53.551Z,37.10
2017-12-05T04:49:20.562Z,36.30
2017-12-05T04:51:46.849Z,35.23
2017-12-05T04:54:13.197Z,35.87
2017-12-05T04:56:39.509Z,33.70
2017-12-05T04:59:05.825Z,34.50
2017-12-05T05:01:32.243Z,31.50
2017-12-05T05:03:58.559Z,34.00
2017-12-05T05:06:25.605Z,32.60
2017-12-05T05:08:52.624Z,37.40
2017-12-05T05:11:18.952Z,34.40
2017-12-05T05:13:45.243Z,31.23
2017-12-05T05:16:12.093Z,36.27
2017-12-05T05:18:38.458Z,36.63
2017-12-05T05:21:04.774Z,35.13
2017-12-05T05:23:50.754Z,39.30
2017-12-05T05:26:17.476Z,36.77
2017-12-05T05:28:44.957Z,38.20
2017-12-05T05:31:11.221Z,38.07
2017-12-05T05:33:37.537Z,35.90
2017-12-05T05:36:03.805Z,31.60
2017-12-05T05:38:30.786Z,36.60
2017-12-05T05:40:57.050Z,39.57
2017-12-05T05:43:24.161Z,31.90
2017-12-05T05:45:50.441Z,32.63
2017-12-05T05:48:17.444Z,30.73
2017-12-05T05:50:43.713Z,34.80
2017-12-05T05:53:10.758Z,32.07
2017-12-05T05:55:37.011Z,29.30
2017-12-05T05:58:03.303Z,31.97
2017-12-05T06:00:29.526Z,29.40
2017-12-05T06:02:55.836Z,34.43
2017-12-05T06:05:22.076Z,39.75
2017-12-05T06:07:48.385Z,34.43
2017-12-05T06:10:14.688Z,28.83
2017-12-05T06:12:40.978Z,33.47
2017-12-05T06:15:07.278Z,37.73
2017-12-05T06:17:33.552Z,35.93
2017-12-05T06:19:59.845Z,34.50
2017-12-05T06:22:26.097Z,32.00
2017-12-05T06:24:52.359Z,33.10
2017-12-05T06:27:19.417Z,29.97
2017-12-05T06:29:52.517Z,31.80
2017-12-05T06:32:18.781Z,32.10
2017-12-05T06:34:45.059Z,36.17
2017-12-05T06:37:11.311Z,35.30
2017-12-05T06:39:37.595Z,33.50
2017-12-05T06:42:04.637Z,30.17
2017-12-05T06:44:30.882Z,39.70
2017-12-05T06:46:57.915Z,31.70
2017-12-05T06:49:24.919Z,31.60
2017-12-05T06:51:51.203Z,33.40
2017-12-05T06:54:17.503Z,31.83
2017-12-05T06:56:43.822Z,34.60
2017-12-05T06:59:10.192Z,31.10
2017-12-05T07:01:37.288Z,35.00
2017-12-05T07:04:03.563Z,33.50
2017-12-05T07:06:29.866Z,39.67
2017-12-05T07:08:56.185Z,31.13
2017-12-05T07:11:22.529Z,32.00
2017-12-05T07:13:48.803Z,35.90
2017-12-05T07:16:15.894Z,43.43
2017-12-05T07:18:42.242Z,35.03
2017-12-05T07:21:08.523Z,36.07
2017-12-05T07:23:35.565Z,34.13
2017-12-05T07:26:02.613Z,31.03
2017-12-05T07:28:29.653Z,34.20
2017-12-05T07:30:56.711Z,34.00
2017-12-05T07:33:23.107Z,41.50
2017-12-05T07:35:49.367Z,35.17
2017-12-05T07:38:16.369Z,34.17
2017-12-05T07:40:42.650Z,28.10
2017-12-05T07:43:08.927Z,31.93
2017-12-05T07:45:35.287Z,30.63
2017-12-05T07:48:02.333Z,32.33
2017-12-05T07:50:29.362Z,31.23
2017-12-05T07:52:55.700Z,29.97
2017-12-05T07:55:22.013Z,29.93
2017-12-05T07:57:48.336Z,31.03
2017-12-05T08:00:14.630Z,29.13
2017-12-05T08:02:40.935Z,31.20
2017-12-05T08:05:07.262Z,33.33
2017-12-05T08:07:33.650Z,31.83
2017-12-05T08:09:59.986Z,29.50
2017-12-05T08:12:26.292Z,33.30
2017-12-05T08:14:52.623Z,35.00
2017-12-05T08:17:18.975Z,35.27
2017-12-05T08:19:45.312Z,28.63
2017-12-05T08:22:11.639Z,27.97
2017-12-05T08:24:37.954Z,29.30
2017-12-05T08:27:04.258Z,32.33
2017-12-05T08:29:31.354Z,32.70
2017-12-05T08:31:57.689Z,31.50
2017-12-05T08:34:24.050Z,27.63
2017-12-05T08:36:51.169Z,32.50
2017-12-05T08:39:17.514Z,26.87
2017-12-05T08:41:44.572Z,28.20
2017-12-05T08:44:11.611Z,30.93
2017-12-05T08:46:37.917Z,33.23
2017-12-05T08:49:04.246Z,32.23
2017-12-05T08:51:30.459Z,30.30
2017-12-05T08:53:56.740Z,30.87
2017-12-05T08:56:23.753Z,34.13
2017-12-05T08:58:50.054Z,31.83
2017-12-05T09:01:16.354Z,29.77
2017-12-05T09:03:43.453Z,28.50
2017-12-05T09:06:09.794Z,28.47
2017-12-05T09:08:36.107Z,31.50
2017-12-05T09:11:02.381Z,30.97
2017-12-05T09:13:28.669Z,32.77
2017-12-05T09:15:54.997Z,29.20
2017-12-05T09:18:21.259Z,32.00
2017-12-05T09:20:47.568Z,29.33
2017-12-05T09:23:13.849Z,30.93
2017-12-05T09:25:40.881Z,33.77
2017-12-05T09:28:07.127Z,31.87
2017-12-05T09:30:34.178Z,34.27
2017-12-05T09:33:01.234Z,34.07
2017-12-05T09:35:28.289Z,30.83
2017-12-05T09:37:54.560Z,27.70
2017-12-05T09:40:20.901Z,27.57
2017-12-05T09:42:47.223Z,29.70
2017-12-05T09:45:13.542Z,27.83
2017-12-05T09:47:39.854Z,29.23
2017-12-05T09:50:06.139Z,30.73
2017-12-05T09:52:33.213Z,29.60
2017-12-05T09:54:59.538Z,30.57
2017-12-05T09:57:26.571Z,29.90
2017-12-05T09:59:53.665Z,36.40
2017-12-05T10:02:19.949Z,35.20
2017-12-05T10:04:47.071Z,31.57
2017-12-05T10:07:13.374Z,30.83
2017-12-05T10:09:39.718Z,29.47
2017-12-05T10:12:06.003Z,32.90
2017-12-05T10:14:33.077Z,26.30
2017-12-05T10:16:59.453Z,27.83
2017-12-05T10:19:25.742Z,30.57
2017-12-05T10:21:52.089Z,30.37
2017-12-05T10:24:18.449Z,27.93
2017-12-05T10:26:44.762Z,31.77
2017-12-05T10:29:11.081Z,33.53
2017-12-05T10:31:37.406Z,26.87
2017-12-05T10:34:03.655Z,30.93
2017-12-05T10:36:29.904Z,27.37
2017-12-05T10:38:56.952Z,30.70
2017-12-05T10:41:23.223Z,30.90
2017-12-05T10:43:49.478Z,32.07
2017-12-05T10:46:15.835Z,32.20
2017-12-05T10:48:42.156Z,29.07
2017-12-05T10:51:08.452Z,26.60
2017-12-05T10:53:34.722Z,32.40
2017-12-05T10:56:01.006Z,32.80
2017-12-05T10:58:27.318Z,27.53
2017-12-05T11:00:54.323Z,29.57
2017-12-05T11:03:20.613Z,30.50
2017-12-05T11:05:46.910Z,27.00
2017-12-05T11:08:13.984Z,31.17
2017-12-05T11:10:40.268Z,28.37
2017-12-05T11:13:06.503Z,27.67
2017-12-05T11:15:32.819Z,33.63
2017-12-05T11:17:59.097Z,31.07
2017-12-05T11:20:25.439Z,26.23
2017-12-05T11:22:51.786Z,29.33
2017-12-05T11:25:18.108Z,27.60
2017-12-05T11:27:44.334Z,38.90
2017-12-05T11:30:10.666Z,33.10
2017-12-05T11:32:36.928Z,28.03
2017-12-05T11:35:03.167Z,28.30
2017-12-05T11:37:30.155Z,25.03
2017-12-05T11:39:56.423Z,28.20
2017-12-05T11:42:22.712Z,17.73
2017-12-05T11:44:48.980Z,26.80
2017-12-05T11:47:15.275Z,25.27
2017-12-05T11:49:41.628Z,22.03
2017-12-05T11:52:07.938Z,26.80
2017-12-05T11:54:34.257Z,28.77
2017-12-05T11:57:01.300Z,23.80
2017-12-05T11:59:27.561Z,22.10
2017-12-05T12:01:53.870Z,26.83
2017-12-05T12:04:20.135Z,23.70
2017-12-05T12:06:46.519Z,25.00
2017-12-05T12:09:12.815Z,20.40
2017-12-05T12:11:39.802Z,27.97
2017-12-05T12:14:06.717Z,33.33
2017-12-05T12:16:32.998Z,24.57
2017-12-05T12:18:59.202Z,21.87
2017-12-05T12:21:26.224Z,22.60
2017-12-05T12:23:53.273Z,21.90
2017-12-05T12:26:20.306Z,20.47
2017-12-05T12:28:46.609Z,20.80
2017-12-05T12:31:12.845Z,23.00
2017-12-05T12:33:39.149Z,17.70
2017-12-05T12:36:05.442Z,16.97
2017-12-05T12:38:32.503Z,21.70
2017-12-05T12:40:59.536Z,19.50
2017-12-05T12:43:26.549Z,27.63
2017-12-05T12:45:52.826Z,17.40
2017-12-05T12:48:19.866Z,18.47
2017-12-05T12:50:46.866Z,19.57
2017-12-05T12:53:13.154Z,23.60
2017-12-05T12:55:39.501Z,22.07
2017-12-05T12:58:05.767Z,22.70
2017-12-05T13:00:32.114Z,20.20
2017-12-05T13:02:59.134Z,24.83
2017-12-05T13:05:25.447Z,21.63
2017-12-05T13:07:51.733Z,25.80
2017-12-05T13:10:18.718Z,21.43
2017-12-05T13:12:44.949Z,23.20
2017-12-05T13:15:11.242Z,25.23
2017-12-05T13:17:38.232Z,27.83
2017-12-05T13:20:04.476Z,25.80
2017-12-05T13:22:30.749Z,24.50
2017-12-05T13:24:57.746Z,25.63
2017-12-05T13:27:24.065Z,26.53
2017-12-05T13:29:50.839Z,22.03
2017-12-05T13:32:17.103Z,21.27
2017-12-05T13:34:44.133Z,28.20
2017-12-05T13:37:10.452Z,22.80
2017-12-05T13:39:38.249Z,19.70
2017-12-05T13:42:05.278Z,20.10
2017-12-05T13:44:32.367Z,19.60
2017-12-05T13:46:58.675Z,23.13
2017-12-05T13:49:25.682Z,20.53
2017-12-05T13:51:51.931Z,22.47
2017-12-05T13:54:18.908Z,17.43
2017-12-05T13:56:45.158Z,18.90
2017-12-05T13:59:11.889Z,24.00
2017-12-05T14:01:38.198Z,21.33
2017-12-05T14:04:04.479Z,19.67
2017-12-05T14:06:30.714Z,22.43
2017-12-05T14:08:56.973Z,20.87
2017-12-05T14:11:23.987Z,20.33
2017-12-05T14:13:50.224Z,21.73
2017-12-05T14:16:16.487Z,20.97
2017-12-05T14:18:43.571Z,23.50
2017-12-05T14:21:09.918Z,34.70
2017-12-05T14:23:36.159Z,28.30
2017-12-05T14:26:02.451Z,26.43
2017-12-05T14:28:28.690Z,26.43
2017-12-05T14:30:55.032Z,21.13
2017-12-05T14:33:21.258Z,22.10
2017-12-05T14:35:47.504Z,20.50
2017-12-05T14:38:13.820Z,20.57
2017-12-05T14:40:40.135Z,21.73
2017-12-05T14:43:06.398Z,21.00
2017-12-05T14:45:32.761Z,25.53
2017-12-05T14:47:59.835Z,23.87
2017-12-05T14:50:26.080Z,27.77
2017-12-05T14:52:52.338Z,23.60
2017-12-05T14:55:19.323Z,18.50
2017-12-05T14:57:46.372Z,22.90
2017-12-05T15:00:12.684Z,20.87
2017-12-05T15:02:39.633Z,24.53
2017-12-05T15:05:06.625Z,19.93
2017-12-05T15:07:32.842Z,19.70
2017-12-05T15:09:59.103Z,30.40
2017-12-05T15:12:25.401Z,22.60
2017-12-05T15:14:51.655Z,19.63
2017-12-05T15:17:17.907Z,19.90
2017-12-05T15:19:44.926Z,22.13
2017-12-05T15:22:11.268Z,25.10
2017-12-05T15:24:37.509Z,33.40
2017-12-05T15:27:03.804Z,23.50
2017-12-05T15:29:30.024Z,24.93
2017-12-05T15:31:56.259Z,25.20
2017-12-05T15:34:22.482Z,27.30
2017-12-05T15:36:48.767Z,26.90
2017-12-05T15:39:14.999Z,24.53
2017-12-05T15:41:42.025Z,30.80
2017-12-05T15:44:08.335Z,30.13
2017-12-05T15:46:34.647Z,24.30
2017-12-05T15:49:00.838Z,26.90
2017-12-05T15:51:27.856Z,26.40
2017-12-05T15:53:54.068Z,25.80
2017-12-05T15:56:20.338Z,47.87
2017-12-05T15:58:47.388Z,61.57
2017-12-05T16:01:13.707Z,74.40
2017-12-05T16:03:40.695Z,68.47
2017-12-05T16:06:07.030Z,109.57
2017-12-05T16:08:33.343Z,85.23
2017-12-05T16:10:59.588Z,36.83
2017-12-05T16:13:25.827Z,27.27
2017-12-05T16:15:52.059Z,30.23
2017-12-05T16:18:18.316Z,32.20
2017-12-05T16:20:44.643Z,29.60
2017-12-05T16:23:10.844Z,29.00
2017-12-05T16:25:37.080Z,28.63
2017-12-05T16:28:03.323Z,27.37
2017-12-05T16:30:29.584Z,27.90
2017-12-05T16:32:56.666Z,26.20
2017-12-05T16:35:22.980Z,28.47
2017-12-05T16:37:49.289Z,34.77
2017-12-05T16:40:16.303Z,29.87
2017-12-05T16:42:42.580Z,26.07
2017-12-05T16:45:09.544Z,29.53
2017-12-05T16:47:35.811Z,27.33
2017-12-05T16:50:02.024Z,26.10
2017-12-05T16:52:28.308Z,25.60
2017-12-05T16:55:02.390Z,24.93
2017-12-05T16:57:28.658Z,22.50
2017-12-05T16:59:54.974Z,26.53
2017-12-05T17:02:22.022Z,33.50
2017-12-05T17:04:49.042Z,25.20
2017-12-05T17:07:15.307Z,25.60
2017-12-05T17:09:41.623Z,33.57
2017-12-05T17:12:08.726Z,26.60
2017-12-05T17:14:35.099Z,29.70
2017-12-05T17:17:02.088Z,32.23
2017-12-05T17:19:28.439Z,31.40
2017-12-05T17:21:54.699Z,81.33
2017-12-05T17:24:21.755Z,48.27
2017-12-05T17:26:48.772Z,33.63
2017-12-05T17:29:15.026Z,27.00
2017-12-05T17:31:41.295Z,27.80
2017-12-05T17:34:07.578Z,27.33
2017-12-05T17:36:33.936Z,31.10
2017-12-05T17:39:00.992Z,36.00
2017-12-05T17:44:11.216Z,31.73
2017-12-05T17:46:37.434Z,28.47
2017-12-05T17:49:03.695Z,30.73
2017-12-05T17:51:30.679Z,29.70
2017-12-05T17:53:56.925Z,27.63
2017-12-05T17:56:23.144Z,30.00
2017-12-05T17:58:49.474Z,31.90
2017-12-05T18:01:19.390Z,33.93
2017-12-05T18:03:45.794Z,31.63
2017-12-05T18:06:12.104Z,31.30
2017-12-05T18:08:38.336Z,32.50
2017-12-05T18:11:04.669Z,28.03
2017-12-05T18:13:31.685Z,26.50
2017-12-05T18:15:58.007Z,32.57
2017-12-05T18:18:24.371Z,28.67
2017-12-05T18:20:50.738Z,27.60
2017-12-05T18:23:17.051Z,29.00
2017-12-05T18:25:44.087Z,29.53
2017-12-05T18:28:10.482Z,31.03
2017-12-05T18:30:36.728Z,29.97
2017-12-05T18:33:03.017Z,28.83
2017-12-05T18:35:29.334Z,31.67
2017-12-05T18:37:55.657Z,28.17
2017-12-05T18:40:21.983Z,28.87
2017-12-05T18:42:49.033Z,31.93
2017-12-05T18:45:16.114Z,33.70
2017-12-05T18:47:42.481Z,26.50
2017-12-05T18:50:08.845Z,29.27
2017-12-05T18:52:35.802Z,30.33
2017-12-05T18:55:02.139Z,32.63
2017-12-05T18:57:28.423Z,32.50
2017-12-05T18:59:54.682Z,33.37
2017-12-05T19:02:21.772Z,33.33
2017-12-05T19:04:48.071Z,34.97
2017-12-05T19:07:14.387Z,35.93
2017-12-05T19:09:41.417Z,33.07
2017-12-05T19:12:07.734Z,29.57
2017-12-05T19:14:34.020Z,32.37
2017-12-05T19:17:00.269Z,34.53
2017-12-05T19:22:19.615Z,34.40
2017-12-05T19:24:46.712Z,38.70
2017-12-05T19:27:13.080Z,31.57
2017-12-05T19:29:40.174Z,34.70
2017-12-05T19:32:06.388Z,39.20
2017-12-05T19:34:33.437Z,34.53
2017-12-05T19:37:00.487Z,31.87
2017-12-05T19:39:26.723Z,33.43
2017-12-05T19:41:52.973Z,33.60
2017-12-05T19:44:19.234Z,32.53
2017-12-05T19:46:45.471Z,31.87
2017-12-05T19:49:11.682Z,36.03
2017-12-05T19:51:37.917Z,32.07
2017-12-05T19:54:04.166Z,35.60
2017-12-05T19:56:30.456Z,31.37
2017-12-05T19:58:56.779Z,33.90
2017-12-05T20:01:23.001Z,34.23
2017-12-05T20:03:49.309Z,29.90
2017-12-05T20:06:15.577Z,33.83
2017-12-05T20:08:41.817Z,31.90
2017-12-05T20:11:08.184Z,33.47
2017-12-05T20:13:35.162Z,31.73
2017-12-05T20:16:01.458Z,35.30
2017-12-05T20:18:28.524Z,32.50
2017-12-05T20:20:54.773Z,29.70
2017-12-05T20:23:21.052Z,30.00
2017-12-05T20:25:47.445Z,34.33
2017-12-05T20:28:13.716Z,36.57
2017-12-05T20:30:40.678Z,28.27
2017-12-05T20:33:07.648Z,30.27
2017-12-05T20:35:33.926Z,29.43
2017-12-05T20:38:00.197Z,30.53
2017-12-05T20:40:26.398Z,33.97
2017-12-05T20:42:52.665Z,33.87
2017-12-05T20:45:18.917Z,33.50
2017-12-05T20:47:45.205Z,32.87
2017-12-05T20:50:11.380Z,30.70
2017-12-05T20:52:37.600Z,28.57
2017-12-05T20:55:03.824Z,31.17
2017-12-05T20:57:30.144Z,30.60
2017-12-05T20:59:56.441Z,30.23
2017-12-05T21:02:24.309Z,29.00
2017-12-05T21:04:51.269Z,29.67
2017-12-05T21:07:17.567Z,29.10
2017-12-05T21:09:44.501Z,28.40
2017-12-05T21:12:10.713Z,29.67
2017-12-05T21:14:36.863Z,36.90
2017-12-05T21:17:03.089Z,35.83
2017-12-05T21:19:30.041Z,33.67
2017-12-05T21:21:56.982Z,35.70
2017-12-05T21:24:23.906Z,30.77
2017-12-05T21:26:50.130Z,33.30
2017-12-05T21:29:16.352Z,35.50
2017-12-05T21:31:42.581Z,28.17
2017-12-05T21:34:08.832Z,34.60
2017-12-05T21:36:35.205Z,26.00
2017-12-05T21:39:01.654Z,32.90
2017-12-05T21:41:34.980Z,39.00
2017-12-05T21:44:02.193Z,30.33
2017-12-05T21:46:28.536Z,30.13
2017-12-05T21:48:55.396Z,32.10
2017-12-05T21:51:21.883Z,32.67
2017-12-05T21:53:49.094Z,30.80
2017-12-05T21:56:15.564Z,29.00
2017-12-05T21:58:42.674Z,29.23
2017-12-05T22:01:09.175Z,35.50
2017-12-05T22:03:36.421Z,30.30
2017-12-05T22:06:02.636Z,32.37
2017-12-05T22:08:28.812Z,31.03
2017-12-05T22:10:54.993Z,33.00
2017-12-05T22:13:21.936Z,33.67
2017-12-05T22:15:48.173Z,29.67
2017-12-05T22:18:14.406Z,29.83
2017-12-05T22:20:40.589Z,32.63
2017-12-05T22:23:06.820Z,34.77
2017-12-05T22:25:33.836Z,31.90
2017-12-05T22:28:00.045Z,31.37
2017-12-05T22:30:26.289Z,31.27
2017-12-05T22:32:52.481Z,29.17
2017-12-05T22:35:18.704Z,31.23
2017-12-05T22:37:44.952Z,30.40
2017-12-05T22:40:11.133Z,34.40
2017-12-05T22:42:37.320Z,30.23
2017-12-05T22:45:03.580Z,30.20
2017-12-05T22:47:29.758Z,27.63
2017-12-05T22:49:55.980Z,37.10
2017-12-05T22:52:22.152Z,30.50
2017-12-05T22:54:48.325Z,26.53
2017-12-05T22:57:15.221Z,30.63
2017-12-05T22:59:41.409Z,29.63
2017-12-05T23:02:08.352Z,27.27
2017-12-05T23:04:34.523Z,30.53
2017-12-05T23:07:00.740Z,26.23
2017-12-05T23:09:26.941Z,30.50
2017-12-05T23:11:53.137Z,30.10
2017-12-05T23:14:20.114Z,31.90
2017-12-05T23:16:46.325Z,30.03
2017-12-05T23:19:13.240Z,30.93
2017-12-05T23:21:39.411Z,32.13
2017-12-05T23:24:05.646Z,34.03
2017-12-05T23:26:31.816Z,29.97
2017-12-05T23:28:58.018Z,24.57
2017-12-05T23:31:24.266Z,33.50
2017-12-05T23:33:50.449Z,27.60
2017-12-05T23:36:16.653Z,26.23
2017-12-05T23:38:43.593Z,27.40
2017-12-05T23:41:09.754Z,25.87
2017-12-05T23:43:36.014Z,24.90
2017-12-05T23:46:02.217Z,26.33
2017-12-05T23:51:21.475Z,27.23
2017-12-05T23:53:47.658Z,31.20
2017-12-05T23:56:14.647Z,24.37
2017-12-05T23:58:41.536Z,27.37
